sensor_id;sensor_type;location;lat;lon;timestamp;P1;durP1;ratioP1;P2;durP2;ratioP2
15297;SDS011;7750;48.796;9.026;2022-12-11T00:03:18;16.57;;;12.27;;
15297;SDS011;7750;48.796;9.026;2022-12-11T00:08:19;18.77;;;12.60;;
15297;SDS011;7750;48.796;9.026;2022-12-11T00:13:19;16.43;;;12.40;;
15297;SDS011;7750;48.796;9.026;2022-12-11T00:18:20;18.57;;;12.63;;
15297;SDS011;7750;48.796;9.026;2022-12-11T00:23:21;17.53;;;13.13;;
15297;SDS011;7750;48.796;9.026;2022-12-11T01:45:54;19.90;;;13.10;;
15297;SDS011;7750;48.796;9.026;2022-12-11T02:03:02;23.27;;;15.47;;
15297;SDS011;7750;48.796;9.026;2022-12-11T02:08:19;24.23;;;16.57;;
15297;SDS011;7750;48.796;9.026;2022-12-11T02:13:32;19.90;;;15.13;;
15297;SDS011;7750;48.796;9.026;2022-12-11T02:30:06;18.57;;;13.20;;
15297;SDS011;7750;48.796;9.026;2022-12-11T02:35:18;18.23;;;12.93;;
15297;SDS011;7750;48.796;9.026;2022-12-11T02:40:25;19.47;;;13.67;;
15297;SDS011;7750;48.796;9.026;2022-12-11T06:28:08;18.10;;;12.83;;
15297;SDS011;7750;48.796;9.026;2022-12-11T06:33:09;16.83;;;12.93;;
15297;SDS011;7750;48.796;9.026;2022-12-11T06:38:09;18.57;;;12.83;;
15297;SDS011;7750;48.796;9.026;2022-12-11T06:43:10;20.30;;;13.03;;
15297;SDS011;7750;48.796;9.026;2022-12-11T06:48:11;17.57;;;12.33;;
15297;SDS011;7750;48.796;9.026;2022-12-11T06:53:12;18.90;;;12.67;;
15297;SDS011;7750;48.796;9.026;2022-12-11T06:58:13;19.30;;;13.50;;
15297;SDS011;7750;48.796;9.026;2022-12-11T07:03:14;17.13;;;11.90;;
15297;SDS011;7750;48.796;9.026;2022-12-11T07:08:15;18.27;;;12.87;;
15297;SDS011;7750;48.796;9.026;2022-12-11T07:13:15;17.97;;;12.93;;
15297;SDS011;7750;48.796;9.026;2022-12-11T07:18:16;19.23;;;12.43;;
15297;SDS011;7750;48.796;9.026;2022-12-11T07:23:17;20.30;;;12.80;;
15297;SDS011;7750;48.796;9.026;2022-12-11T07:28:17;20.73;;;12.67;;
15297;SDS011;7750;48.796;9.026;2022-12-11T07:33:18;17.60;;;12.37;;
15297;SDS011;7750;48.796;9.026;2022-12-11T07:38:19;19.67;;;11.50;;
15297;SDS011;7750;48.796;9.026;2022-12-11T07:43:19;17.00;;;12.33;;
15297;SDS011;7750;48.796;9.026;2022-12-11T07:48:20;21.93;;;14.50;;
15297;SDS011;7750;48.796;9.026;2022-12-11T07:53:20;20.70;;;15.67;;
15297;SDS011;7750;48.796;9.026;2022-12-11T07:58:21;19.50;;;13.90;;
15297;SDS011;7750;48.796;9.026;2022-12-11T08:03:21;19.33;;;13.30;;
15297;SDS011;7750;48.796;9.026;2022-12-11T08:08:22;17.33;;;12.97;;
15297;SDS011;7750;48.796;9.026;2022-12-11T08:13:23;19.60;;;13.60;;
15297;SDS011;7750;48.796;9.026;2022-12-11T08:18:24;21.90;;;14.07;;
15297;SDS011;7750;48.796;9.026;2022-12-11T08:23:24;19.17;;;12.67;;
15297;SDS011;7750;48.796;9.026;2022-12-11T08:28:25;17.43;;;12.47;;
15297;SDS011;7750;48.796;9.026;2022-12-11T08:33:26;18.57;;;12.40;;
15297;SDS011;7750;48.796;9.026;2022-12-11T08:38:26;19.13;;;13.40;;
15297;SDS011;7750;48.796;9.026;2022-12-11T08:43:27;19.93;;;15.00;;
15297;SDS011;7750;48.796;9.026;2022-12-11T08:48:28;21.87;;;14.90;;
15297;SDS011;7750;48.796;9.026;2022-12-11T08:53:29;21.17;;;16.47;;
15297;SDS011;7750;48.796;9.026;2022-12-11T08:58:30;20.60;;;14.80;;
15297;SDS011;7750;48.796;9.026;2022-12-11T09:03:31;18.37;;;13.30;;
15297;SDS011;7750;48.796;9.026;2022-12-11T09:08:31;18.73;;;13.13;;
15297;SDS011;7750;48.796;9.026;2022-12-11T09:13:32;17.37;;;11.67;;
15297;SDS011;7750;48.796;9.026;2022-12-11T09:18:33;17.07;;;12.03;;
15297;SDS011;7750;48.796;9.026;2022-12-11T09:23:33;16.30;;;11.67;;
15297;SDS011;7750;48.796;9.026;2022-12-11T09:28:34;16.73;;;12.33;;
15297;SDS011;7750;48.796;9.026;2022-12-11T09:33:36;18.80;;;13.07;;
15297;SDS011;7750;48.796;9.026;2022-12-11T09:38:37;18.40;;;13.03;;
15297;SDS011;7750;48.796;9.026;2022-12-11T09:43:41;16.20;;;12.23;;
15297;SDS011;7750;48.796;9.026;2022-12-11T09:48:46;19.07;;;13.10;;
15297;SDS011;7750;48.796;9.026;2022-12-11T09:53:48;16.60;;;11.57;;
15297;SDS011;7750;48.796;9.026;2022-12-11T10:09:29;22.20;;;14.97;;
15297;SDS011;7750;48.796;9.026;2022-12-11T10:20:30;16.13;;;11.33;;
15297;SDS011;7750;48.796;9.026;2022-12-11T10:25:43;17.23;;;12.30;;
15297;SDS011;7750;48.796;9.026;2022-12-11T10:35:58;16.57;;;11.60;;
15297;SDS011;7750;48.796;9.026;2022-12-11T10:41:00;17.93;;;11.23;;
15297;SDS011;7750;48.796;9.026;2022-12-11T10:46:04;14.60;;;10.60;;
15297;SDS011;7750;48.796;9.026;2022-12-11T10:51:06;15.50;;;10.10;;
15297;SDS011;7750;48.796;9.026;2022-12-11T10:56:07;15.57;;;10.67;;
15297;SDS011;7750;48.796;9.026;2022-12-11T11:01:15;17.07;;;11.67;;
15297;SDS011;7750;48.796;9.026;2022-12-11T11:06:19;15.70;;;10.77;;
15297;SDS011;7750;48.796;9.026;2022-12-11T11:16:26;14.93;;;11.40;;
15297;SDS011;7750;48.796;9.026;2022-12-11T11:21:27;19.60;;;12.67;;
15297;SDS011;7750;48.796;9.026;2022-12-11T11:26:30;18.00;;;13.17;;
15297;SDS011;7750;48.796;9.026;2022-12-11T11:31:33;20.03;;;13.50;;
15297;SDS011;7750;48.796;9.026;2022-12-11T11:36:35;29.00;;;15.30;;
15297;SDS011;7750;48.796;9.026;2022-12-11T11:41:39;22.50;;;15.40;;
15297;SDS011;7750;48.796;9.026;2022-12-11T11:46:53;19.83;;;13.90;;
15297;SDS011;7750;48.796;9.026;2022-12-11T11:52:20;23.70;;;17.30;;
15297;SDS011;7750;48.796;9.026;2022-12-11T11:57:47;21.10;;;15.20;;
15297;SDS011;7750;48.796;9.026;2022-12-11T12:03:08;23.87;;;16.83;;
15297;SDS011;7750;48.796;9.026;2022-12-11T12:24:44;20.53;;;15.57;;
15297;SDS011;7750;48.796;9.026;2022-12-11T12:30:01;27.30;;;15.33;;
15297;SDS011;7750;48.796;9.026;2022-12-11T12:51:38;23.33;;;15.37;;
15297;SDS011;7750;48.796;9.026;2022-12-11T12:56:40;22.63;;;15.63;;
15297;SDS011;7750;48.796;9.026;2022-12-11T13:01:45;24.90;;;17.50;;
15297;SDS011;7750;48.796;9.026;2022-12-11T13:06:51;24.67;;;16.47;;
15297;SDS011;7750;48.796;9.026;2022-12-11T13:11:53;22.67;;;16.60;;
15297;SDS011;7750;48.796;9.026;2022-12-11T13:17:04;24.37;;;17.57;;
15297;SDS011;7750;48.796;9.026;2022-12-11T13:27:22;22.13;;;15.50;;
15297;SDS011;7750;48.796;9.026;2022-12-11T13:32:28;20.80;;;14.60;;
15297;SDS011;7750;48.796;9.026;2022-12-11T13:37:37;23.60;;;15.40;;
15297;SDS011;7750;48.796;9.026;2022-12-11T13:48:01;20.77;;;14.50;;
15297;SDS011;7750;48.796;9.026;2022-12-11T13:53:04;22.37;;;15.30;;
15297;SDS011;7750;48.796;9.026;2022-12-11T13:58:18;22.47;;;15.70;;
15297;SDS011;7750;48.796;9.026;2022-12-11T14:03:20;23.70;;;16.27;;
15297;SDS011;7750;48.796;9.026;2022-12-11T14:08:23;22.80;;;15.40;;
15297;SDS011;7750;48.796;9.026;2022-12-11T14:13:32;24.47;;;14.87;;
15297;SDS011;7750;48.796;9.026;2022-12-11T14:18:35;23.20;;;16.23;;
15297;SDS011;7750;48.796;9.026;2022-12-11T14:23:36;20.80;;;15.30;;
15297;SDS011;7750;48.796;9.026;2022-12-11T14:28:37;21.87;;;14.40;;
15297;SDS011;7750;48.796;9.026;2022-12-11T14:33:43;26.10;;;16.93;;
15297;SDS011;7750;48.796;9.026;2022-12-11T14:44:16;25.90;;;17.70;;
15297;SDS011;7750;48.796;9.026;2022-12-11T14:49:21;27.00;;;17.63;;
15297;SDS011;7750;48.796;9.026;2022-12-11T14:55:08;28.00;;;18.53;;
15297;SDS011;7750;48.796;9.026;2022-12-11T14:59:53;26.87;;;17.83;;
15297;SDS011;7750;48.796;9.026;2022-12-11T15:04:59;26.40;;;18.00;;
15297;SDS011;7750;48.796;9.026;2022-12-11T15:10:04;27.10;;;18.23;;
15297;SDS011;7750;48.796;9.026;2022-12-11T15:15:06;26.07;;;18.10;;
15297;SDS011;7750;48.796;9.026;2022-12-11T15:20:20;26.80;;;17.90;;
15297;SDS011;7750;48.796;9.026;2022-12-11T15:25:24;28.40;;;18.30;;
15297;SDS011;7750;48.796;9.026;2022-12-11T15:30:28;30.10;;;20.27;;
15297;SDS011;7750;48.796;9.026;2022-12-11T15:35:30;27.47;;;18.60;;
15297;SDS011;7750;48.796;9.026;2022-12-11T15:40:31;30.40;;;20.77;;
15297;SDS011;7750;48.796;9.026;2022-12-11T15:45:32;28.83;;;20.00;;
15297;SDS011;7750;48.796;9.026;2022-12-11T15:50:32;31.87;;;19.67;;
15297;SDS011;7750;48.796;9.026;2022-12-11T15:55:33;30.63;;;19.07;;
15297;SDS011;7750;48.796;9.026;2022-12-11T16:00:34;42.13;;;27.30;;
15297;SDS011;7750;48.796;9.026;2022-12-11T16:05:34;39.67;;;25.10;;
15297;SDS011;7750;48.796;9.026;2022-12-11T16:10:35;35.20;;;22.93;;
15297;SDS011;7750;48.796;9.026;2022-12-11T16:15:36;36.60;;;23.33;;
15297;SDS011;7750;48.796;9.026;2022-12-11T16:20:39;34.17;;;22.60;;
15297;SDS011;7750;48.796;9.026;2022-12-11T16:25:41;32.27;;;21.23;;
15297;SDS011;7750;48.796;9.026;2022-12-11T16:30:43;33.97;;;23.27;;
15297;SDS011;7750;48.796;9.026;2022-12-11T16:35:44;35.20;;;22.70;;
15297;SDS011;7750;48.796;9.026;2022-12-11T16:40:45;36.43;;;23.70;;
15297;SDS011;7750;48.796;9.026;2022-12-11T16:45:45;38.70;;;24.30;;
15297;SDS011;7750;48.796;9.026;2022-12-11T16:50:46;35.50;;;22.37;;
15297;SDS011;7750;48.796;9.026;2022-12-11T16:55:46;34.83;;;22.67;;
15297;SDS011;7750;48.796;9.026;2022-12-11T17:00:47;34.53;;;22.50;;
15297;SDS011;7750;48.796;9.026;2022-12-11T17:05:48;40.33;;;22.10;;
15297;SDS011;7750;48.796;9.026;2022-12-11T17:10:49;35.77;;;22.63;;
15297;SDS011;7750;48.796;9.026;2022-12-11T17:15:51;38.17;;;24.20;;
15297;SDS011;7750;48.796;9.026;2022-12-11T17:20:51;42.50;;;24.30;;
15297;SDS011;7750;48.796;9.026;2022-12-11T17:25:52;38.27;;;23.73;;
15297;SDS011;7750;48.796;9.026;2022-12-11T17:30:53;33.53;;;22.30;;
15297;SDS011;7750;48.796;9.026;2022-12-11T17:35:53;36.63;;;23.27;;
15297;SDS011;7750;48.796;9.026;2022-12-11T17:40:54;35.43;;;23.27;;
15297;SDS011;7750;48.796;9.026;2022-12-11T17:45:55;36.20;;;23.53;;
15297;SDS011;7750;48.796;9.026;2022-12-11T17:50:56;39.60;;;24.40;;
15297;SDS011;7750;48.796;9.026;2022-12-11T17:56:01;37.33;;;25.03;;
15297;SDS011;7750;48.796;9.026;2022-12-11T18:01:07;37.13;;;23.97;;
15297;SDS011;7750;48.796;9.026;2022-12-11T18:06:11;39.90;;;24.63;;
15297;SDS011;7750;48.796;9.026;2022-12-11T18:11:14;37.80;;;23.17;;
15297;SDS011;7750;48.796;9.026;2022-12-11T18:16:18;35.93;;;22.97;;
15297;SDS011;7750;48.796;9.026;2022-12-11T18:21:22;39.47;;;24.23;;
15297;SDS011;7750;48.796;9.026;2022-12-11T18:26:25;38.73;;;25.30;;
15297;SDS011;7750;48.796;9.026;2022-12-11T23:02:54;33.30;;;19.47;;
15297;SDS011;7750;48.796;9.026;2022-12-11T23:07:57;33.83;;;20.80;;
15297;SDS011;7750;48.796;9.026;2022-12-11T23:13:14;31.93;;;20.67;;
15297;SDS011;7750;48.796;9.026;2022-12-11T23:24:52;25.27;;;16.37;;
15297;SDS011;7750;48.796;9.026;2022-12-11T23:30:34;28.30;;;19.00;;
15297;SDS011;7750;48.796;9.026;2022-12-11T23:36:25;28.23;;;17.50;;
15297;SDS011;7750;48.796;9.026;2022-12-11T23:41:41;27.83;;;18.47;;
15297;SDS011;7750;48.796;9.026;2022-12-11T23:52:02;29.80;;;16.90;;
15297;SDS011;7750;48.796;9.026;2022-12-11T23:57:30;26.17;;;16.77;;
